sensor_id;sensor_type;location;lat;lon;timestamp;pressure;altitude;pressure_sealevel;temperature;humidity
60611;BME280;46439;51.164;13.572;2022-11-20T00:01:36;99753.25;;;-1.92;86.36
60611;BME280;46439;51.164;13.572;2022-11-20T00:04:05;99747.59;;;-1.92;86.35
60611;BME280;46439;51.164;13.572;2022-11-20T00:06:33;99744.80;;;-1.90;86.61
60611;BME280;46439;51.164;13.572;2022-11-20T00:09:03;99746.64;;;-1.88;86.59
60611;BME280;46439;51.164;13.572;2022-11-20T00:11:32;99747.66;;;-1.87;86.59
60611;BME280;46439;51.164;13.572;2022-11-20T00:14:01;99745.05;;;-1.91;86.55
60611;BME280;46439;51.164;13.572;2022-11-20T00:16:32;99747.26;;;-1.95;86.51
60611;BME280;46439;51.164;13.572;2022-11-20T00:19:02;99747.26;;;-1.98;86.37
60611;BME280;46439;51.164;13.572;2022-11-20T00:21:31;99745.77;;;-1.97;86.25
60611;BME280;46439;51.164;13.572;2022-11-20T00:24:19;99743.15;;;-1.94;86.26
60611;BME280;46439;51.164;13.572;2022-11-20T00:26:50;99745.58;;;-1.94;86.51
60611;BME280;46439;51.164;13.572;2022-11-20T00:29:19;99745.73;;;-1.93;86.41
60611;BME280;46439;51.164;13.572;2022-11-20T00:31:47;99750.23;;;-1.94;86.40
60611;BME280;46439;51.164;13.572;2022-11-20T00:34:16;99752.97;;;-1.96;86.39
60611;BME280;46439;51.164;13.572;2022-11-20T00:36:45;99748.27;;;-1.97;86.43
60611;BME280;46439;51.164;13.572;2022-11-20T00:39:13;99752.70;;;-1.95;86.48
60611;BME280;46439;51.164;13.572;2022-11-20T00:41:42;99756.23;;;-1.92;86.42
60611;BME280;46439;51.164;13.572;2022-11-20T00:44:10;99757.40;;;-1.91;86.50
60611;BME280;46439;51.164;13.572;2022-11-20T00:46:39;99759.33;;;-1.91;86.62
60611;BME280;46439;51.164;13.572;2022-11-20T00:49:07;99764.01;;;-1.89;86.73
60611;BME280;46439;51.164;13.572;2022-11-20T00:51:35;99767.16;;;-1.92;86.41
60611;BME280;46439;51.164;13.572;2022-11-20T00:54:04;99764.89;;;-1.92;86.50
60611;BME280;46439;51.164;13.572;2022-11-20T00:56:33;99761.27;;;-1.91;86.59
60611;BME280;46439;51.164;13.572;2022-11-20T00:59:02;99761.08;;;-1.90;86.65
60611;BME280;46439;51.164;13.572;2022-11-20T01:01:31;99758.91;;;-1.89;86.70
60611;BME280;46439;51.164;13.572;2022-11-20T01:04:00;99756.86;;;-1.90;86.86
60611;BME280;46439;51.164;13.572;2022-11-20T01:06:30;99760.34;;;-1.95;86.78
60611;BME280;46439;51.164;13.572;2022-11-20T01:09:00;99763.89;;;-1.99;86.67
60611;BME280;46439;51.164;13.572;2022-11-20T01:11:30;99771.69;;;-1.99;86.56
60611;BME280;46439;51.164;13.572;2022-11-20T01:14:00;99768.95;;;-2.00;86.63
60611;BME280;46439;51.164;13.572;2022-11-20T01:16:31;99773.20;;;-2.03;86.62
60611;BME280;46439;51.164;13.572;2022-11-20T01:19:02;99771.98;;;-2.06;86.57
60611;BME280;46439;51.164;13.572;2022-11-20T01:21:32;99773.72;;;-2.11;86.52
60611;BME280;46439;51.164;13.572;2022-11-20T01:24:01;99769.42;;;-2.13;86.47
60611;BME280;46439;51.164;13.572;2022-11-20T01:26:32;99768.80;;;-2.14;86.32
60611;BME280;46439;51.164;13.572;2022-11-20T01:29:02;99768.40;;;-2.16;86.32
60611;BME280;46439;51.164;13.572;2022-11-20T01:31:33;99764.05;;;-2.22;86.26
60611;BME280;46439;51.164;13.572;2022-11-20T01:34:04;99763.67;;;-2.27;86.24
60611;BME280;46439;51.164;13.572;2022-11-20T01:36:34;99759.89;;;-2.28;85.95
60611;BME280;46439;51.164;13.572;2022-11-20T01:39:05;99760.06;;;-2.31;86.02
60611;BME280;46439;51.164;13.572;2022-11-20T01:41:35;99757.71;;;-2.35;86.16
60611;BME280;46439;51.164;13.572;2022-11-20T01:47:08;99753.05;;;-2.40;85.66
60611;BME280;46439;51.164;13.572;2022-11-20T01:49:40;99748.48;;;-2.40;85.92
60611;BME280;46439;51.164;13.572;2022-11-20T01:52:16;99749.25;;;-2.38;86.12
60611;BME280;46439;51.164;13.572;2022-11-20T01:54:50;99744.23;;;-2.34;86.05
60611;BME280;46439;51.164;13.572;2022-11-20T01:57:21;99741.72;;;-2.33;86.22
60611;BME280;46439;51.164;13.572;2022-11-20T01:59:55;99741.56;;;-2.34;85.89
60611;BME280;46439;51.164;13.572;2022-11-20T02:02:25;99737.62;;;-2.38;85.95
60611;BME280;46439;51.164;13.572;2022-11-20T02:04:56;99739.54;;;-2.40;85.84
60611;BME280;46439;51.164;13.572;2022-11-20T02:07:27;99742.25;;;-2.42;85.88
60611;BME280;46439;51.164;13.572;2022-11-20T02:09:56;99738.20;;;-2.42;85.76
60611;BME280;46439;51.164;13.572;2022-11-20T02:12:24;99737.97;;;-2.40;86.14
60611;BME280;46439;51.164;13.572;2022-11-20T02:15:12;99738.17;;;-2.41;85.86
60611;BME280;46439;51.164;13.572;2022-11-20T02:17:40;99735.98;;;-2.45;85.77
60611;BME280;46439;51.164;13.572;2022-11-20T02:20:11;99736.05;;;-2.52;85.80
60611;BME280;46439;51.164;13.572;2022-11-20T02:22:45;99736.30;;;-2.56;85.68
60611;BME280;46439;51.164;13.572;2022-11-20T02:25:17;99733.39;;;-2.60;85.66
60611;BME280;46439;51.164;13.572;2022-11-20T02:27:48;99734.85;;;-2.65;85.39
60611;BME280;46439;51.164;13.572;2022-11-20T02:30:17;99731.13;;;-2.70;85.46
60611;BME280;46439;51.164;13.572;2022-11-20T02:32:46;99730.44;;;-2.82;85.20
60611;BME280;46439;51.164;13.572;2022-11-20T02:35:41;99729.30;;;-2.88;84.75
60611;BME280;46439;51.164;13.572;2022-11-20T02:38:10;99732.34;;;-2.93;85.11
60611;BME280;46439;51.164;13.572;2022-11-20T02:40:39;99726.44;;;-2.91;84.82
60611;BME280;46439;51.164;13.572;2022-11-20T02:43:08;99724.86;;;-2.99;85.10
60611;BME280;46439;51.164;13.572;2022-11-20T02:45:37;99724.98;;;-3.01;85.03
60611;BME280;46439;51.164;13.572;2022-11-20T02:48:07;99728.28;;;-3.01;85.11
60611;BME280;46439;51.164;13.572;2022-11-20T02:50:38;99729.02;;;-2.98;85.11
60611;BME280;46439;51.164;13.572;2022-11-20T02:53:07;99729.23;;;-2.99;85.03
60611;BME280;46439;51.164;13.572;2022-11-20T02:55:35;99728.55;;;-3.05;85.08
60611;BME280;46439;51.164;13.572;2022-11-20T02:58:04;99728.34;;;-3.13;84.91
60611;BME280;46439;51.164;13.572;2022-11-20T03:00:33;99728.20;;;-3.16;84.86
60611;BME280;46439;51.164;13.572;2022-11-20T03:03:01;99731.20;;;-3.16;84.79
60611;BME280;46439;51.164;13.572;2022-11-20T03:05:30;99729.29;;;-3.17;85.08
60611;BME280;46439;51.164;13.572;2022-11-20T03:07:58;99728.55;;;-3.16;84.84
60611;BME280;46439;51.164;13.572;2022-11-20T03:10:27;99721.42;;;-3.12;85.03
60611;BME280;46439;51.164;13.572;2022-11-20T03:12:56;99718.14;;;-3.07;85.15
60611;BME280;46439;51.164;13.572;2022-11-20T03:15:25;99713.69;;;-3.06;85.03
60611;BME280;46439;51.164;13.572;2022-11-20T03:17:55;99710.09;;;-3.02;85.31
60611;BME280;46439;51.164;13.572;2022-11-20T03:20:24;99707.95;;;-2.99;85.27
60611;BME280;46439;51.164;13.572;2022-11-20T03:22:54;99705.73;;;-2.97;85.45
60611;BME280;46439;51.164;13.572;2022-11-20T03:25:23;99703.02;;;-2.94;85.47
60611;BME280;46439;51.164;13.572;2022-11-20T03:27:51;99703.06;;;-2.92;85.43
60611;BME280;46439;51.164;13.572;2022-11-20T03:30:20;99704.25;;;-2.91;85.61
60611;BME280;46439;51.164;13.572;2022-11-20T03:32:48;99703.23;;;-2.92;85.72
60611;BME280;46439;51.164;13.572;2022-11-20T03:35:17;99706.83;;;-2.90;85.66
60611;BME280;46439;51.164;13.572;2022-11-20T03:37:46;99703.10;;;-2.90;85.49
60611;BME280;46439;51.164;13.572;2022-11-20T03:40:15;99704.36;;;-2.87;85.67
60611;BME280;46439;51.164;13.572;2022-11-20T03:42:43;99705.20;;;-2.89;85.54
60611;BME280;46439;51.164;13.572;2022-11-20T03:45:16;99704.33;;;-2.90;85.63
60611;BME280;46439;51.164;13.572;2022-11-20T03:47:45;99706.57;;;-2.91;85.63
60611;BME280;46439;51.164;13.572;2022-11-20T03:50:15;99704.38;;;-2.93;85.51
60611;BME280;46439;51.164;13.572;2022-11-20T03:52:43;99702.45;;;-2.93;85.53
60611;BME280;46439;51.164;13.572;2022-11-20T03:55:12;99698.74;;;-2.98;85.51
60611;BME280;46439;51.164;13.572;2022-11-20T03:57:40;99701.26;;;-2.96;85.52
60611;BME280;46439;51.164;13.572;2022-11-20T04:00:11;99697.61;;;-2.95;85.41
60611;BME280;46439;51.164;13.572;2022-11-20T04:02:40;99695.98;;;-2.97;85.35
60611;BME280;46439;51.164;13.572;2022-11-20T04:05:09;99694.94;;;-2.97;85.32
60611;BME280;46439;51.164;13.572;2022-11-20T04:07:38;99689.23;;;-2.95;85.50
60611;BME280;46439;51.164;13.572;2022-11-20T04:10:07;99692.94;;;-2.93;85.37
60611;BME280;46439;51.164;13.572;2022-11-20T04:12:36;99689.36;;;-2.90;85.61
60611;BME280;46439;51.164;13.572;2022-11-20T04:15:05;99690.34;;;-2.88;85.55
60611;BME280;46439;51.164;13.572;2022-11-20T04:17:34;99689.94;;;-2.90;85.70
60611;BME280;46439;51.164;13.572;2022-11-20T04:20:03;99688.89;;;-2.98;85.48
60611;BME280;46439;51.164;13.572;2022-11-20T04:22:31;99688.65;;;-3.05;85.14
60611;BME280;46439;51.164;13.572;2022-11-20T04:25:00;99687.52;;;-3.10;85.31
60611;BME280;46439;51.164;13.572;2022-11-20T04:27:28;99685.02;;;-3.15;84.85
60611;BME280;46439;51.164;13.572;2022-11-20T04:29:58;99682.17;;;-3.20;85.11
60611;BME280;46439;51.164;13.572;2022-11-20T04:32:26;99674.08;;;-3.28;84.96
60611;BME280;46439;51.164;13.572;2022-11-20T04:34:55;99673.66;;;-3.38;84.41
60611;BME280;46439;51.164;13.572;2022-11-20T04:37:23;99667.83;;;-3.46;84.52
60611;BME280;46439;51.164;13.572;2022-11-20T04:39:52;99668.48;;;-3.49;84.51
60611;BME280;46439;51.164;13.572;2022-11-20T04:42:20;99661.27;;;-3.46;84.52
60611;BME280;46439;51.164;13.572;2022-11-20T04:44:58;99659.60;;;-3.44;84.66
60611;BME280;46439;51.164;13.572;2022-11-20T04:47:27;99660.65;;;-3.44;84.56
60611;BME280;46439;51.164;13.572;2022-11-20T04:49:55;99662.36;;;-3.46;85.01
60611;BME280;46439;51.164;13.572;2022-11-20T04:52:24;99664.88;;;-3.48;84.73
60611;BME280;46439;51.164;13.572;2022-11-20T04:54:52;99664.13;;;-3.46;84.88
60611;BME280;46439;51.164;13.572;2022-11-20T04:57:21;99670.52;;;-3.44;84.93
60611;BME280;46439;51.164;13.572;2022-11-20T04:59:50;99676.92;;;-3.43;84.63
60611;BME280;46439;51.164;13.572;2022-11-20T05:02:18;99677.79;;;-3.43;84.89
60611;BME280;46439;51.164;13.572;2022-11-20T05:04:47;99681.94;;;-3.41;85.02
60611;BME280;46439;51.164;13.572;2022-11-20T05:07:15;99683.27;;;-3.37;85.07
60611;BME280;46439;51.164;13.572;2022-11-20T05:09:44;99679.90;;;-3.34;85.08
60611;BME280;46439;51.164;13.572;2022-11-20T05:12:12;99681.45;;;-3.34;85.27
60611;BME280;46439;51.164;13.572;2022-11-20T05:14:41;99682.05;;;-3.35;85.27
60611;BME280;46439;51.164;13.572;2022-11-20T05:17:12;99682.56;;;-3.38;85.07
60611;BME280;46439;51.164;13.572;2022-11-20T05:19:40;99679.05;;;-3.46;85.10
60611;BME280;46439;51.164;13.572;2022-11-20T05:22:09;99673.41;;;-3.51;84.68
60611;BME280;46439;51.164;13.572;2022-11-20T05:24:37;99676.86;;;-3.56;84.36
60611;BME280;46439;51.164;13.572;2022-11-20T05:27:06;99678.03;;;-3.58;84.49
60611;BME280;46439;51.164;13.572;2022-11-20T05:29:34;99677.19;;;-3.58;84.62
60611;BME280;46439;51.164;13.572;2022-11-20T05:32:03;99673.36;;;-3.56;84.92
60611;BME280;46439;51.164;13.572;2022-11-20T05:34:31;99671.23;;;-3.53;84.57
60611;BME280;46439;51.164;13.572;2022-11-20T05:36:59;99668.52;;;-3.52;84.68
60611;BME280;46439;51.164;13.572;2022-11-20T05:39:28;99665.21;;;-3.55;84.67
60611;BME280;46439;51.164;13.572;2022-11-20T05:41:56;99669.77;;;-3.58;84.48
60611;BME280;46439;51.164;13.572;2022-11-20T05:44:43;99668.65;;;-3.62;84.57
60611;BME280;46439;51.164;13.572;2022-11-20T05:47:12;99665.73;;;-3.63;84.38
60611;BME280;46439;51.164;13.572;2022-11-20T05:49:40;99667.44;;;-3.63;84.80
60611;BME280;46439;51.164;13.572;2022-11-20T05:52:09;99667.07;;;-3.65;84.53
60611;BME280;46439;51.164;13.572;2022-11-20T05:54:37;99664.84;;;-3.63;84.73
60611;BME280;46439;51.164;13.572;2022-11-20T05:57:06;99660.06;;;-3.60;84.56
60611;BME280;46439;51.164;13.572;2022-11-20T05:59:34;99663.14;;;-3.56;84.96
60611;BME280;46439;51.164;13.572;2022-11-20T06:02:02;99662.77;;;-3.53;84.82
60611;BME280;46439;51.164;13.572;2022-11-20T06:04:31;99665.51;;;-3.49;84.81
60611;BME280;46439;51.164;13.572;2022-11-20T06:06:59;99666.58;;;-3.46;85.11
60611;BME280;46439;51.164;13.572;2022-11-20T06:09:28;99665.42;;;-3.48;84.89
60611;BME280;46439;51.164;13.572;2022-11-20T06:11:57;99663.40;;;-3.49;84.85
60611;BME280;46439;51.164;13.572;2022-11-20T06:14:25;99659.08;;;-3.50;84.74
60611;BME280;46439;51.164;13.572;2022-11-20T06:16:54;99657.77;;;-3.51;84.67
60611;BME280;46439;51.164;13.572;2022-11-20T06:19:22;99651.83;;;-3.52;84.87
60611;BME280;46439;51.164;13.572;2022-11-20T06:21:51;99649.29;;;-3.51;84.94
60611;BME280;46439;51.164;13.572;2022-11-20T06:24:19;99646.55;;;-3.61;84.72
60611;BME280;46439;51.164;13.572;2022-11-20T06:26:48;99643.97;;;-3.64;84.57
60611;BME280;46439;51.164;13.572;2022-11-20T06:29:17;99641.74;;;-3.68;84.45
60611;BME280;46439;51.164;13.572;2022-11-20T06:31:45;99645.88;;;-3.72;84.46
60611;BME280;46439;51.164;13.572;2022-11-20T06:34:13;99642.79;;;-3.76;84.27
60611;BME280;46439;51.164;13.572;2022-11-20T06:36:42;99641.36;;;-3.76;84.38
60611;BME280;46439;51.164;13.572;2022-11-20T06:39:11;99635.00;;;-3.73;84.73
60611;BME280;46439;51.164;13.572;2022-11-20T06:41:39;99637.31;;;-3.76;84.44
60611;BME280;46439;51.164;13.572;2022-11-20T06:44:07;99640.38;;;-3.72;84.50
60611;BME280;46439;51.164;13.572;2022-11-20T06:46:36;99636.23;;;-3.65;84.60
60611;BME280;46439;51.164;13.572;2022-11-20T06:49:05;99633.93;;;-3.58;84.74
60611;BME280;46439;51.164;13.572;2022-11-20T06:51:34;99631.31;;;-3.53;85.28
60611;BME280;46439;51.164;13.572;2022-11-20T06:54:02;99633.86;;;-3.46;84.75
60611;BME280;46439;51.164;13.572;2022-11-20T06:56:31;99631.98;;;-3.39;85.24
60611;BME280;46439;51.164;13.572;2022-11-20T06:58:59;99630.74;;;-3.33;85.35
60611;BME280;46439;51.164;13.572;2022-11-20T07:01:31;99631.34;;;-3.31;85.44
60611;BME280;46439;51.164;13.572;2022-11-20T07:04:00;99632.45;;;-3.30;85.21
60611;BME280;46439;51.164;13.572;2022-11-20T07:06:28;99634.23;;;-3.27;85.40
60611;BME280;46439;51.164;13.572;2022-11-20T07:08:57;99637.45;;;-3.25;85.40
60611;BME280;46439;51.164;13.572;2022-11-20T07:11:25;99630.52;;;-3.21;85.57
60611;BME280;46439;51.164;13.572;2022-11-20T07:13:54;99631.45;;;-3.19;85.38
60611;BME280;46439;51.164;13.572;2022-11-20T07:16:22;99631.06;;;-3.16;85.37
60611;BME280;46439;51.164;13.572;2022-11-20T07:18:51;99629.95;;;-3.15;85.55
60611;BME280;46439;51.164;13.572;2022-11-20T07:21:19;99633.61;;;-3.12;85.44
60611;BME280;46439;51.164;13.572;2022-11-20T07:23:48;99637.14;;;-3.07;85.62
60611;BME280;46439;51.164;13.572;2022-11-20T07:26:16;99632.45;;;-3.05;85.72
60611;BME280;46439;51.164;13.572;2022-11-20T07:28:46;99634.55;;;-3.05;85.71
60611;BME280;46439;51.164;13.572;2022-11-20T07:31:15;99634.27;;;-3.03;85.69
60611;BME280;46439;51.164;13.572;2022-11-20T07:33:43;99633.55;;;-3.00;85.72
60611;BME280;46439;51.164;13.572;2022-11-20T07:36:12;99626.09;;;-2.97;85.79
60611;BME280;46439;51.164;13.572;2022-11-20T07:38:40;99619.27;;;-2.97;85.47
60611;BME280;46439;51.164;13.572;2022-11-20T07:41:09;99620.81;;;-2.94;85.63
60611;BME280;46439;51.164;13.572;2022-11-20T07:43:37;99628.42;;;-2.92;85.47
60611;BME280;46439;51.164;13.572;2022-11-20T07:46:06;99629.61;;;-2.89;85.67
60611;BME280;46439;51.164;13.572;2022-11-20T07:48:34;99625.42;;;-2.84;85.61
60611;BME280;46439;51.164;13.572;2022-11-20T07:51:03;99622.67;;;-2.79;85.72
60611;BME280;46439;51.164;13.572;2022-11-20T07:53:31;99622.98;;;-2.76;85.92
60611;BME280;46439;51.164;13.572;2022-11-20T07:56:02;99616.58;;;-2.73;85.91
60611;BME280;46439;51.164;13.572;2022-11-20T07:58:31;99619.50;;;-2.66;86.04
60611;BME280;46439;51.164;13.572;2022-11-20T08:01:05;99612.48;;;-2.59;86.13
60611;BME280;46439;51.164;13.572;2022-11-20T08:03:35;99618.41;;;-2.55;86.30
60611;BME280;46439;51.164;13.572;2022-11-20T08:06:07;99623.55;;;-2.53;86.16
60611;BME280;46439;51.164;13.572;2022-11-20T08:08:35;99619.80;;;-2.55;85.92
60611;BME280;46439;51.164;13.572;2022-11-20T08:11:04;99622.52;;;-2.61;85.79
60611;BME280;46439;51.164;13.572;2022-11-20T08:13:52;99625.07;;;-2.60;85.75
60611;BME280;46439;51.164;13.572;2022-11-20T08:16:39;99622.80;;;-2.52;85.66
60611;BME280;46439;51.164;13.572;2022-11-20T08:19:08;99619.11;;;-2.45;85.86
60611;BME280;46439;51.164;13.572;2022-11-20T08:21:36;99622.33;;;-2.38;85.91
60611;BME280;46439;51.164;13.572;2022-11-20T08:24:06;99618.30;;;-2.33;86.20
60611;BME280;46439;51.164;13.572;2022-11-20T08:26:36;99618.90;;;-2.26;86.11
60611;BME280;46439;51.164;13.572;2022-11-20T08:29:05;99619.04;;;-2.15;86.36
60611;BME280;46439;51.164;13.572;2022-11-20T08:31:34;99617.71;;;-1.96;86.74
60611;BME280;46439;51.164;13.572;2022-11-20T08:34:03;99617.02;;;-1.94;86.76
60611;BME280;46439;51.164;13.572;2022-11-20T08:36:34;99613.06;;;-1.95;86.57
60611;BME280;46439;51.164;13.572;2022-11-20T08:39:03;99608.40;;;-1.99;86.32
60611;BME280;46439;51.164;13.572;2022-11-20T08:41:31;99609.86;;;-2.00;86.21
60611;BME280;46439;51.164;13.572;2022-11-20T08:44:02;99611.02;;;-1.96;86.34
60611;BME280;46439;51.164;13.572;2022-11-20T08:46:34;99609.99;;;-1.94;86.29
60611;BME280;46439;51.164;13.572;2022-11-20T08:49:05;99605.87;;;-1.93;86.23
60611;BME280;46439;51.164;13.572;2022-11-20T08:51:34;99605.92;;;-1.86;86.36
60611;BME280;46439;51.164;13.572;2022-11-20T08:54:03;99603.39;;;-1.80;86.33
60611;BME280;46439;51.164;13.572;2022-11-20T08:56:32;99597.64;;;-1.79;86.48
60611;BME280;46439;51.164;13.572;2022-11-20T08:59:01;99587.67;;;-1.80;86.43
60611;BME280;46439;51.164;13.572;2022-11-20T09:01:30;99583.16;;;-1.69;86.53
60611;BME280;46439;51.164;13.572;2022-11-20T09:03:58;99578.03;;;-1.29;87.01
60611;BME280;46439;51.164;13.572;2022-11-20T09:06:27;99574.39;;;-1.11;87.36
60611;BME280;46439;51.164;13.572;2022-11-20T09:08:56;99572.94;;;-1.03;87.66
60611;BME280;46439;51.164;13.572;2022-11-20T09:11:25;99566.84;;;-0.85;87.72
60611;BME280;46439;51.164;13.572;2022-11-20T09:13:53;99567.94;;;-0.86;87.79
60611;BME280;46439;51.164;13.572;2022-11-20T09:16:22;99568.57;;;-0.87;87.46
60611;BME280;46439;51.164;13.572;2022-11-20T09:18:50;99569.98;;;-0.87;87.33
60611;BME280;46439;51.164;13.572;2022-11-20T09:21:19;99573.01;;;-0.90;87.28
60611;BME280;46439;51.164;13.572;2022-11-20T09:23:47;99574.29;;;-0.88;87.10
60611;BME280;46439;51.164;13.572;2022-11-20T09:26:16;99579.95;;;-0.81;87.21
60611;BME280;46439;51.164;13.572;2022-11-20T09:28:44;99578.77;;;-0.78;87.10
60611;BME280;46439;51.164;13.572;2022-11-20T09:31:20;99577.57;;;-0.75;87.29
60611;BME280;46439;51.164;13.572;2022-11-20T09:33:50;99579.91;;;-0.69;87.43
60611;BME280;46439;51.164;13.572;2022-11-20T09:36:18;99576.94;;;-0.65;87.31
60611;BME280;46439;51.164;13.572;2022-11-20T09:38:48;99579.78;;;-0.63;87.39
60611;BME280;46439;51.164;13.572;2022-11-20T09:41:39;99577.20;;;-0.61;87.27
60611;BME280;46439;51.164;13.572;2022-11-20T09:44:25;99572.05;;;-0.53;87.27
60611;BME280;46439;51.164;13.572;2022-11-20T09:47:00;99572.89;;;-0.46;87.37
60611;BME280;46439;51.164;13.572;2022-11-20T09:49:36;99568.50;;;-0.42;87.42
60611;BME280;46439;51.164;13.572;2022-11-20T09:52:20;99564.45;;;-0.37;87.50
60611;BME280;46439;51.164;13.572;2022-11-20T09:54:53;99559.69;;;-0.38;87.35
60611;BME280;46439;51.164;13.572;2022-11-20T09:57:25;99557.25;;;-0.38;87.20
60611;BME280;46439;51.164;13.572;2022-11-20T09:59:59;99556.17;;;-0.31;87.26
60611;BME280;46439;51.164;13.572;2022-11-20T10:02:34;99553.48;;;-0.26;87.18
60611;BME280;46439;51.164;13.572;2022-11-20T10:05:10;99553.16;;;-0.20;87.43
60611;BME280;46439;51.164;13.572;2022-11-20T10:07:44;99549.16;;;-0.14;87.28
60611;BME280;46439;51.164;13.572;2022-11-20T10:10:19;99548.05;;;-0.09;87.32
60611;BME280;46439;51.164;13.572;2022-11-20T10:13:02;99539.35;;;-0.06;87.32
60611;BME280;46439;51.164;13.572;2022-11-20T10:15:42;99533.70;;;0.03;87.56
60611;BME280;46439;51.164;13.572;2022-11-20T10:18:27;99533.52;;;0.12;87.75
60611;BME280;46439;51.164;13.572;2022-11-20T10:21:03;99529.88;;;0.15;87.58
60611;BME280;46439;51.164;13.572;2022-11-20T10:23:59;99528.08;;;0.20;87.60
60611;BME280;46439;51.164;13.572;2022-11-20T10:26:42;99522.87;;;0.22;87.40
60611;BME280;46439;51.164;13.572;2022-11-20T10:29:15;99518.61;;;0.26;87.66
60611;BME280;46439;51.164;13.572;2022-11-20T10:31:45;99516.52;;;0.30;87.71
60611;BME280;46439;51.164;13.572;2022-11-20T10:34:20;99517.02;;;0.28;87.59
60611;BME280;46439;51.164;13.572;2022-11-20T10:36:55;99514.45;;;0.31;87.38
60611;BME280;46439;51.164;13.572;2022-11-20T10:39:33;99516.73;;;0.34;87.38
60611;BME280;46439;51.164;13.572;2022-11-20T10:42:03;99515.55;;;0.28;87.40
60611;BME280;46439;51.164;13.572;2022-11-20T10:44:38;99519.04;;;0.27;87.34
60611;BME280;46439;51.164;13.572;2022-11-20T10:47:30;99525.16;;;0.26;87.06
60611;BME280;46439;51.164;13.572;2022-11-20T10:49:57;99523.85;;;0.29;87.20
60611;BME280;46439;51.164;13.572;2022-11-20T10:52:35;99523.66;;;0.33;87.12
60611;BME280;46439;51.164;13.572;2022-11-20T10:55:16;99518.55;;;0.35;87.24
60611;BME280;46439;51.164;13.572;2022-11-20T10:57:56;99522.55;;;0.41;87.15
60611;BME280;46439;51.164;13.572;2022-11-20T11:00:32;99522.58;;;0.45;87.16
60611;BME280;46439;51.164;13.572;2022-11-20T11:03:00;99520.48;;;0.47;87.30
60611;BME280;46439;51.164;13.572;2022-11-20T11:05:39;99515.95;;;0.50;87.28
60611;BME280;46439;51.164;13.572;2022-11-20T11:08:13;99512.71;;;0.55;87.24
60611;BME280;46439;51.164;13.572;2022-11-20T11:10:46;99514.20;;;0.61;87.28
60611;BME280;46439;51.164;13.572;2022-11-20T11:13:23;99512.02;;;0.68;87.47
60611;BME280;46439;51.164;13.572;2022-11-20T11:15:52;99506.77;;;0.73;87.45
60611;BME280;46439;51.164;13.572;2022-11-20T11:18:29;99502.38;;;0.82;87.70
60611;BME280;46439;51.164;13.572;2022-11-20T11:21:00;99498.89;;;0.89;87.70
60611;BME280;46439;51.164;13.572;2022-11-20T11:23:33;99498.39;;;0.93;87.77
60611;BME280;46439;51.164;13.572;2022-11-20T11:26:04;99491.23;;;0.94;87.65
60611;BME280;46439;51.164;13.572;2022-11-20T11:28:33;99488.13;;;0.93;87.50
60611;BME280;46439;51.164;13.572;2022-11-20T11:31:02;99481.86;;;0.87;87.15
60611;BME280;46439;51.164;13.572;2022-11-20T11:33:32;99475.13;;;0.83;87.13
60611;BME280;46439;51.164;13.572;2022-11-20T11:36:15;99470.70;;;0.79;87.07
60611;BME280;46439;51.164;13.572;2022-11-20T11:38:48;99466.36;;;0.78;87.01
60611;BME280;46439;51.164;13.572;2022-11-20T11:41:22;99464.88;;;0.81;86.99
60611;BME280;46439;51.164;13.572;2022-11-20T11:43:56;99462.37;;;0.84;87.23
60611;BME280;46439;51.164;13.572;2022-11-20T11:46:52;99454.20;;;0.84;87.16
60611;BME280;46439;51.164;13.572;2022-11-20T11:49:22;99452.55;;;0.86;86.93
60611;BME280;46439;51.164;13.572;2022-11-20T11:52:00;99454.98;;;0.87;87.19
60611;BME280;46439;51.164;13.572;2022-11-20T11:54:37;99455.09;;;0.90;86.65
60611;BME280;46439;51.164;13.572;2022-11-20T11:57:17;99457.63;;;0.93;87.14
60611;BME280;46439;51.164;13.572;2022-11-20T11:59:57;99453.44;;;0.99;86.93
60611;BME280;46439;51.164;13.572;2022-11-20T12:02:37;99452.09;;;1.03;86.95
60611;BME280;46439;51.164;13.572;2022-11-20T12:05:16;99449.98;;;1.04;87.10
60611;BME280;46439;51.164;13.572;2022-11-20T12:07:48;99449.80;;;1.06;86.97
60611;BME280;46439;51.164;13.572;2022-11-20T12:10:23;99447.14;;;1.11;87.37
60611;BME280;46439;51.164;13.572;2022-11-20T12:13:08;99442.74;;;1.14;86.97
60611;BME280;46439;51.164;13.572;2022-11-20T12:15:45;99444.20;;;1.16;87.04
60611;BME280;46439;51.164;13.572;2022-11-20T12:18:17;99441.48;;;1.17;86.98
60611;BME280;46439;51.164;13.572;2022-11-20T12:20:56;99442.30;;;1.20;87.17
60611;BME280;46439;51.164;13.572;2022-11-20T12:23:31;99441.69;;;1.25;87.03
60611;BME280;46439;51.164;13.572;2022-11-20T12:26:12;99444.70;;;1.29;87.22
60611;BME280;46439;51.164;13.572;2022-11-20T12:28:56;99443.27;;;1.31;87.38
60611;BME280;46439;51.164;13.572;2022-11-20T12:31:43;99442.29;;;1.28;87.02
60611;BME280;46439;51.164;13.572;2022-11-20T12:34:30;99445.81;;;1.24;87.25
60611;BME280;46439;51.164;13.572;2022-11-20T12:37:10;99448.45;;;1.24;87.02
60611;BME280;46439;51.164;13.572;2022-11-20T12:39:44;99445.15;;;1.24;86.86
60611;BME280;46439;51.164;13.572;2022-11-20T12:42:31;99445.60;;;1.25;86.75
60611;BME280;46439;51.164;13.572;2022-11-20T12:45:34;99444.14;;;1.25;87.05
60611;BME280;46439;51.164;13.572;2022-11-20T12:51:31;99446.32;;;1.39;87.22
60611;BME280;46439;51.164;13.572;2022-11-20T12:54:06;99444.60;;;1.44;87.07
60611;BME280;46439;51.164;13.572;2022-11-20T12:56:46;99437.48;;;1.47;87.15
60611;BME280;46439;51.164;13.572;2022-11-20T12:59:30;99434.46;;;1.49;87.03
60611;BME280;46439;51.164;13.572;2022-11-20T13:02:14;99437.08;;;1.51;87.02
60611;BME280;46439;51.164;13.572;2022-11-20T13:07:42;99434.23;;;1.42;87.06
60611;BME280;46439;51.164;13.572;2022-11-20T13:10:18;99430.52;;;1.41;86.94
60611;BME280;46439;51.164;13.572;2022-11-20T13:12:50;99431.52;;;1.42;86.89
60611;BME280;46439;51.164;13.572;2022-11-20T13:15:35;99430.13;;;1.46;86.86
60611;BME280;46439;51.164;13.572;2022-11-20T13:18:11;99428.59;;;1.47;86.72
60611;BME280;46439;51.164;13.572;2022-11-20T13:20:44;99424.09;;;1.46;86.84
60611;BME280;46439;51.164;13.572;2022-11-20T13:23:24;99419.14;;;1.42;86.95
60611;BME280;46439;51.164;13.572;2022-11-20T13:26:04;99424.19;;;1.41;86.77